sensor_id;sensor_type;location;lat;lon;timestamp;temperature;humidity
26336;DHT22;14047;50.936;4.654;2023-09-12T00:01:42;21.50;99.90
26336;DHT22;14047;50.936;4.654;2023-09-12T00:04:08;21.40;99.90
26336;DHT22;14047;50.936;4.654;2023-09-12T00:06:37;21.40;99.90
26336;DHT22;14047;50.936;4.654;2023-09-12T00:09:03;21.40;99.90
26336;DHT22;14047;50.936;4.654;2023-09-12T00:11:31;21.40;99.90
26336;DHT22;14047;50.936;4.654;2023-09-12T00:13:58;21.40;99.90
26336;DHT22;14047;50.936;4.654;2023-09-12T00:16:25;21.30;99.90
26336;DHT22;14047;50.936;4.654;2023-09-12T00:18:51;21.40;99.90
26336;DHT22;14047;50.936;4.654;2023-09-12T00:21:17;21.30;99.90
26336;DHT22;14047;50.936;4.654;2023-09-12T00:23:42;21.40;99.90
26336;DHT22;14047;50.936;4.654;2023-09-12T00:26:08;21.40;99.90
26336;DHT22;14047;50.936;4.654;2023-09-12T00:28:34;21.40;99.90
26336;DHT22;14047;50.936;4.654;2023-09-12T00:31:00;21.40;99.90
26336;DHT22;14047;50.936;4.654;2023-09-12T00:33:27;21.40;99.90
26336;DHT22;14047;50.936;4.654;2023-09-12T00:35:53;21.40;99.90
26336;DHT22;14047;50.936;4.654;2023-09-12T00:38:19;21.40;99.90
26336;DHT22;14047;50.936;4.654;2023-09-12T00:40:45;21.50;99.90
26336;DHT22;14047;50.936;4.654;2023-09-12T00:43:11;21.50;99.90
26336;DHT22;14047;50.936;4.654;2023-09-12T00:45:37;21.50;99.90
26336;DHT22;14047;50.936;4.654;2023-09-12T00:48:04;21.50;99.90
26336;DHT22;14047;50.936;4.654;2023-09-12T00:50:32;21.50;99.90
26336;DHT22;14047;50.936;4.654;2023-09-12T00:52:59;21.50;99.90
26336;DHT22;14047;50.936;4.654;2023-09-12T00:55:28;21.50;99.90
26336;DHT22;14047;50.936;4.654;2023-09-12T00:57:54;21.50;99.90
26336;DHT22;14047;50.936;4.654;2023-09-12T01:00:20;21.60;99.90
26336;DHT22;14047;50.936;4.654;2023-09-12T01:02:46;21.60;99.90
26336;DHT22;14047;50.936;4.654;2023-09-12T01:05:16;21.60;99.90
26336;DHT22;14047;50.936;4.654;2023-09-12T01:07:43;21.50;99.90
26336;DHT22;14047;50.936;4.654;2023-09-12T01:10:10;21.50;99.90
26336;DHT22;14047;50.936;4.654;2023-09-12T01:12:36;21.50;99.90
26336;DHT22;14047;50.936;4.654;2023-09-12T01:15:02;21.50;99.90
26336;DHT22;14047;50.936;4.654;2023-09-12T01:17:31;21.40;99.90
26336;DHT22;14047;50.936;4.654;2023-09-12T01:19:58;21.30;99.90
26336;DHT22;14047;50.936;4.654;2023-09-12T01:28:02;21.10;99.90
26336;DHT22;14047;50.936;4.654;2023-09-12T01:30:31;21.10;99.90
26336;DHT22;14047;50.936;4.654;2023-09-12T01:32:59;21.10;99.90
26336;DHT22;14047;50.936;4.654;2023-09-12T01:35:25;21.00;99.90
26336;DHT22;14047;50.936;4.654;2023-09-12T01:37:51;21.00;99.90
26336;DHT22;14047;50.936;4.654;2023-09-12T01:40:17;20.90;99.90
26336;DHT22;14047;50.936;4.654;2023-09-12T01:42:45;20.80;99.90
26336;DHT22;14047;50.936;4.654;2023-09-12T01:45:15;20.80;99.90
26336;DHT22;14047;50.936;4.654;2023-09-12T01:47:42;20.80;99.90
26336;DHT22;14047;50.936;4.654;2023-09-12T01:50:09;20.70;99.90
26336;DHT22;14047;50.936;4.654;2023-09-12T01:52:39;20.70;99.90
26336;DHT22;14047;50.936;4.654;2023-09-12T01:55:07;20.70;99.90
26336;DHT22;14047;50.936;4.654;2023-09-12T01:57:36;20.60;99.90
26336;DHT22;14047;50.936;4.654;2023-09-12T02:00:03;20.60;99.90
26336;DHT22;14047;50.936;4.654;2023-09-12T02:02:31;20.60;99.90
26336;DHT22;14047;50.936;4.654;2023-09-12T02:05:16;20.50;99.90
26336;DHT22;14047;50.936;4.654;2023-09-12T02:07:46;20.40;99.90
26336;DHT22;14047;50.936;4.654;2023-09-12T02:10:12;20.40;99.90
26336;DHT22;14047;50.936;4.654;2023-09-12T02:12:39;20.40;99.90
26336;DHT22;14047;50.936;4.654;2023-09-12T02:15:06;20.50;99.90
26336;DHT22;14047;50.936;4.654;2023-09-12T02:17:32;20.40;99.90
26336;DHT22;14047;50.936;4.654;2023-09-12T02:19:58;20.40;99.90
26336;DHT22;14047;50.936;4.654;2023-09-12T02:22:24;20.40;99.90
26336;DHT22;14047;50.936;4.654;2023-09-12T02:24:51;20.40;99.90
26336;DHT22;14047;50.936;4.654;2023-09-12T02:27:17;20.30;99.90
26336;DHT22;14047;50.936;4.654;2023-09-12T02:29:44;20.30;99.90
26336;DHT22;14047;50.936;4.654;2023-09-12T02:32:10;20.20;99.90
26336;DHT22;14047;50.936;4.654;2023-09-12T02:34:36;20.00;99.90
26336;DHT22;14047;50.936;4.654;2023-09-12T02:37:02;20.00;99.90
26336;DHT22;14047;50.936;4.654;2023-09-12T02:39:28;20.10;99.90
26336;DHT22;14047;50.936;4.654;2023-09-12T02:41:54;20.10;99.90
26336;DHT22;14047;50.936;4.654;2023-09-12T02:44:20;20.20;99.90
26336;DHT22;14047;50.936;4.654;2023-09-12T02:46:46;20.20;99.90
26336;DHT22;14047;50.936;4.654;2023-09-12T02:49:12;20.30;99.90
26336;DHT22;14047;50.936;4.654;2023-09-12T02:51:38;20.30;99.90
26336;DHT22;14047;50.936;4.654;2023-09-12T02:54:05;20.40;99.90
26336;DHT22;14047;50.936;4.654;2023-09-12T02:56:31;20.40;99.90
26336;DHT22;14047;50.936;4.654;2023-09-12T02:58:57;20.40;99.90
26336;DHT22;14047;50.936;4.654;2023-09-12T03:01:23;20.40;99.90
26336;DHT22;14047;50.936;4.654;2023-09-12T03:03:54;20.50;99.90
26336;DHT22;14047;50.936;4.654;2023-09-12T03:06:20;20.50;99.90
26336;DHT22;14047;50.936;4.654;2023-09-12T03:08:50;20.50;99.90
26336;DHT22;14047;50.936;4.654;2023-09-12T03:11:16;20.60;99.90
26336;DHT22;14047;50.936;4.654;2023-09-12T03:13:42;20.60;99.90
26336;DHT22;14047;50.936;4.654;2023-09-12T03:16:12;20.60;99.90
26336;DHT22;14047;50.936;4.654;2023-09-12T03:18:38;20.70;99.90
26336;DHT22;14047;50.936;4.654;2023-09-12T03:21:04;20.80;99.90
26336;DHT22;14047;50.936;4.654;2023-09-12T03:23:31;20.80;99.90
26336;DHT22;14047;50.936;4.654;2023-09-12T03:26:06;20.90;99.90
26336;DHT22;14047;50.936;4.654;2023-09-12T03:28:34;20.90;99.90
26336;DHT22;14047;50.936;4.654;2023-09-12T03:31:07;20.90;99.90
26336;DHT22;14047;50.936;4.654;2023-09-12T03:33:34;20.90;99.90
26336;DHT22;14047;50.936;4.654;2023-09-12T03:36:00;20.90;99.90
26336;DHT22;14047;50.936;4.654;2023-09-12T03:38:25;21.00;99.90
26336;DHT22;14047;50.936;4.654;2023-09-12T03:40:52;21.00;99.90
26336;DHT22;14047;50.936;4.654;2023-09-12T03:43:18;21.00;99.90
26336;DHT22;14047;50.936;4.654;2023-09-12T03:45:43;21.00;99.90
26336;DHT22;14047;50.936;4.654;2023-09-12T03:48:09;21.00;99.90
26336;DHT22;14047;50.936;4.654;2023-09-12T03:50:35;21.00;99.90
26336;DHT22;14047;50.936;4.654;2023-09-12T03:53:02;21.00;99.90
26336;DHT22;14047;50.936;4.654;2023-09-12T03:55:28;21.00;99.90
26336;DHT22;14047;50.936;4.654;2023-09-12T03:57:54;21.10;99.90
26336;DHT22;14047;50.936;4.654;2023-09-12T04:00:20;21.10;99.90
26336;DHT22;14047;50.936;4.654;2023-09-12T04:02:48;21.10;99.90
26336;DHT22;14047;50.936;4.654;2023-09-12T04:05:14;21.00;99.90
26336;DHT22;14047;50.936;4.654;2023-09-12T04:07:41;21.00;99.90
26336;DHT22;14047;50.936;4.654;2023-09-12T04:10:07;21.10;99.90
26336;DHT22;14047;50.936;4.654;2023-09-12T04:12:33;20.70;99.90
26336;DHT22;14047;50.936;4.654;2023-09-12T04:14:59;20.30;99.90
26336;DHT22;14047;50.936;4.654;2023-09-12T04:17:24;20.40;99.90
26336;DHT22;14047;50.936;4.654;2023-09-12T04:19:50;20.40;99.90
26336;DHT22;14047;50.936;4.654;2023-09-12T04:22:16;20.50;99.90
26336;DHT22;14047;50.936;4.654;2023-09-12T04:24:42;20.60;99.90
26336;DHT22;14047;50.936;4.654;2023-09-12T04:27:08;20.30;99.90
26336;DHT22;14047;50.936;4.654;2023-09-12T04:29:35;20.20;99.90
26336;DHT22;14047;50.936;4.654;2023-09-12T04:32:05;20.20;99.90
26336;DHT22;14047;50.936;4.654;2023-09-12T04:34:32;20.30;99.90
26336;DHT22;14047;50.936;4.654;2023-09-12T04:36:58;20.40;99.90
26336;DHT22;14047;50.936;4.654;2023-09-12T04:39:25;20.60;99.90
26336;DHT22;14047;50.936;4.654;2023-09-12T04:41:51;20.60;99.90
26336;DHT22;14047;50.936;4.654;2023-09-12T04:44:17;20.70;99.90
26336;DHT22;14047;50.936;4.654;2023-09-12T04:46:43;20.70;99.90
26336;DHT22;14047;50.936;4.654;2023-09-12T04:49:09;20.80;99.90
26336;DHT22;14047;50.936;4.654;2023-09-12T04:51:35;20.80;99.90
26336;DHT22;14047;50.936;4.654;2023-09-12T04:54:01;20.90;99.90
26336;DHT22;14047;50.936;4.654;2023-09-12T04:56:27;20.90;99.90
26336;DHT22;14047;50.936;4.654;2023-09-12T04:58:53;20.90;99.90
26336;DHT22;14047;50.936;4.654;2023-09-12T05:01:19;21.00;99.90
26336;DHT22;14047;50.936;4.654;2023-09-12T05:03:45;21.00;99.90
26336;DHT22;14047;50.936;4.654;2023-09-12T05:06:13;21.00;99.90
26336;DHT22;14047;50.936;4.654;2023-09-12T05:08:40;21.00;99.90
26336;DHT22;14047;50.936;4.654;2023-09-12T05:11:06;21.00;99.90
26336;DHT22;14047;50.936;4.654;2023-09-12T05:13:32;21.00;99.90
26336;DHT22;14047;50.936;4.654;2023-09-12T05:15:59;21.00;99.90
26336;DHT22;14047;50.936;4.654;2023-09-12T05:18:26;21.00;99.90
26336;DHT22;14047;50.936;4.654;2023-09-12T05:20:52;21.00;99.90
26336;DHT22;14047;50.936;4.654;2023-09-12T05:23:18;21.10;99.90
26336;DHT22;14047;50.936;4.654;2023-09-12T05:25:44;21.10;99.90
26336;DHT22;14047;50.936;4.654;2023-09-12T05:28:10;21.00;99.90
26336;DHT22;14047;50.936;4.654;2023-09-12T05:30:36;21.00;99.90
26336;DHT22;14047;50.936;4.654;2023-09-12T05:33:02;21.00;99.90
26336;DHT22;14047;50.936;4.654;2023-09-12T05:35:28;21.00;99.90
26336;DHT22;14047;50.936;4.654;2023-09-12T05:37:54;21.00;99.90
26336;DHT22;14047;50.936;4.654;2023-09-12T05:40:20;20.90;99.90
26336;DHT22;14047;50.936;4.654;2023-09-12T05:42:46;20.90;99.90
26336;DHT22;14047;50.936;4.654;2023-09-12T05:45:13;20.80;99.90
26336;DHT22;14047;50.936;4.654;2023-09-12T05:47:39;20.80;99.90
26336;DHT22;14047;50.936;4.654;2023-09-12T05:50:06;20.80;99.90
26336;DHT22;14047;50.936;4.654;2023-09-12T05:52:33;20.70;99.90
26336;DHT22;14047;50.936;4.654;2023-09-12T05:54:59;20.70;99.90
26336;DHT22;14047;50.936;4.654;2023-09-12T05:57:25;20.70;99.90
26336;DHT22;14047;50.936;4.654;2023-09-12T05:59:51;20.60;99.90
26336;DHT22;14047;50.936;4.654;2023-09-12T06:02:17;20.60;99.90
26336;DHT22;14047;50.936;4.654;2023-09-12T06:04:43;20.60;99.90
26336;DHT22;14047;50.936;4.654;2023-09-12T06:07:09;20.60;99.90
26336;DHT22;14047;50.936;4.654;2023-09-12T06:09:36;20.60;99.90
26336;DHT22;14047;50.936;4.654;2023-09-12T06:12:02;20.60;99.90
26336;DHT22;14047;50.936;4.654;2023-09-12T06:14:29;20.70;99.90
26336;DHT22;14047;50.936;4.654;2023-09-12T06:16:54;20.70;99.90
26336;DHT22;14047;50.936;4.654;2023-09-12T06:19:20;20.80;99.90
26336;DHT22;14047;50.936;4.654;2023-09-12T06:21:46;20.80;99.90
26336;DHT22;14047;50.936;4.654;2023-09-12T06:24:18;20.80;99.90
26336;DHT22;14047;50.936;4.654;2023-09-12T06:26:44;20.90;99.90
26336;DHT22;14047;50.936;4.654;2023-09-12T06:29:10;20.70;99.90
26336;DHT22;14047;50.936;4.654;2023-09-12T06:31:36;20.50;99.90
26336;DHT22;14047;50.936;4.654;2023-09-12T06:34:02;20.50;99.90
26336;DHT22;14047;50.936;4.654;2023-09-12T06:36:28;20.50;99.90
26336;DHT22;14047;50.936;4.654;2023-09-12T06:38:58;20.70;99.90
26336;DHT22;14047;50.936;4.654;2023-09-12T06:41:25;20.80;99.90
26336;DHT22;14047;50.936;4.654;2023-09-12T06:43:51;20.90;99.90
26336;DHT22;14047;50.936;4.654;2023-09-12T06:46:18;20.90;99.90
26336;DHT22;14047;50.936;4.654;2023-09-12T06:48:45;21.00;99.90
26336;DHT22;14047;50.936;4.654;2023-09-12T06:51:11;21.00;99.90
26336;DHT22;14047;50.936;4.654;2023-09-12T06:53:37;21.20;99.90
26336;DHT22;14047;50.936;4.654;2023-09-12T06:56:07;21.20;99.90
26336;DHT22;14047;50.936;4.654;2023-09-12T06:58:33;21.30;99.90
26336;DHT22;14047;50.936;4.654;2023-09-12T07:01:06;21.50;99.90
26336;DHT22;14047;50.936;4.654;2023-09-12T07:03:35;21.50;99.90
26336;DHT22;14047;50.936;4.654;2023-09-12T07:06:02;21.60;99.90
26336;DHT22;14047;50.936;4.654;2023-09-12T07:08:31;21.60;99.90
26336;DHT22;14047;50.936;4.654;2023-09-12T07:10:57;21.60;99.90
26336;DHT22;14047;50.936;4.654;2023-09-12T07:13:24;21.70;99.90
26336;DHT22;14047;50.936;4.654;2023-09-12T07:15:50;21.80;99.90
26336;DHT22;14047;50.936;4.654;2023-09-12T07:18:17;21.90;99.90
26336;DHT22;14047;50.936;4.654;2023-09-12T07:20:43;22.00;99.90
26336;DHT22;14047;50.936;4.654;2023-09-12T07:23:11;22.10;99.90
26336;DHT22;14047;50.936;4.654;2023-09-12T07:25:41;22.30;99.90
26336;DHT22;14047;50.936;4.654;2023-09-12T07:28:08;22.40;99.90
26336;DHT22;14047;50.936;4.654;2023-09-12T07:30:34;22.50;99.90
26336;DHT22;14047;50.936;4.654;2023-09-12T07:33:00;22.60;99.90
26336;DHT22;14047;50.936;4.654;2023-09-12T07:35:26;22.70;99.90
26336;DHT22;14047;50.936;4.654;2023-09-12T07:37:52;22.80;99.90
26336;DHT22;14047;50.936;4.654;2023-09-12T07:40:18;22.90;99.90
26336;DHT22;14047;50.936;4.654;2023-09-12T07:42:44;23.00;99.90
26336;DHT22;14047;50.936;4.654;2023-09-12T07:45:10;23.20;99.90
26336;DHT22;14047;50.936;4.654;2023-09-12T07:47:37;23.20;99.90
26336;DHT22;14047;50.936;4.654;2023-09-12T07:50:03;23.30;99.90
26336;DHT22;14047;50.936;4.654;2023-09-12T07:52:30;23.50;99.90
26336;DHT22;14047;50.936;4.654;2023-09-12T07:55:00;23.70;99.90
26336;DHT22;14047;50.936;4.654;2023-09-12T07:57:26;23.80;99.90
26336;DHT22;14047;50.936;4.654;2023-09-12T07:59:52;23.90;99.90
26336;DHT22;14047;50.936;4.654;2023-09-12T08:02:18;24.00;99.90
26336;DHT22;14047;50.936;4.654;2023-09-12T08:04:43;24.20;99.90
26336;DHT22;14047;50.936;4.654;2023-09-12T08:07:09;24.30;99.90
26336;DHT22;14047;50.936;4.654;2023-09-12T08:09:55;24.40;99.90
26336;DHT22;14047;50.936;4.654;2023-09-12T08:12:24;24.40;99.90
26336;DHT22;14047;50.936;4.654;2023-09-12T08:14:52;24.50;99.90
26336;DHT22;14047;50.936;4.654;2023-09-12T08:17:18;24.40;99.90
26336;DHT22;14047;50.936;4.654;2023-09-12T08:19:45;24.30;99.90
26336;DHT22;14047;50.936;4.654;2023-09-12T08:22:12;24.30;99.90
26336;DHT22;14047;50.936;4.654;2023-09-12T08:24:38;24.20;99.90
26336;DHT22;14047;50.936;4.654;2023-09-12T08:27:05;24.20;99.90
26336;DHT22;14047;50.936;4.654;2023-09-12T08:29:32;24.30;99.90
26336;DHT22;14047;50.936;4.654;2023-09-12T08:31:59;24.30;99.90
26336;DHT22;14047;50.936;4.654;2023-09-12T08:34:25;24.40;99.90
26336;DHT22;14047;50.936;4.654;2023-09-12T08:36:51;24.40;99.90
26336;DHT22;14047;50.936;4.654;2023-09-12T08:39:26;24.40;99.90
26336;DHT22;14047;50.936;4.654;2023-09-12T08:41:53;24.40;99.90
26336;DHT22;14047;50.936;4.654;2023-09-12T08:44:20;24.30;99.90
26336;DHT22;14047;50.936;4.654;2023-09-12T08:46:47;24.30;99.90
26336;DHT22;14047;50.936;4.654;2023-09-12T08:49:13;24.20;99.90
26336;DHT22;14047;50.936;4.654;2023-09-12T08:51:40;23.90;99.90
26336;DHT22;14047;50.936;4.654;2023-09-12T08:54:07;24.00;99.90
26336;DHT22;14047;50.936;4.654;2023-09-12T08:56:36;24.10;99.90
26336;DHT22;14047;50.936;4.654;2023-09-12T08:59:05;24.20;99.90
26336;DHT22;14047;50.936;4.654;2023-09-12T09:01:32;24.10;99.90
26336;DHT22;14047;50.936;4.654;2023-09-12T09:04:02;24.20;99.90
26336;DHT22;14047;50.936;4.654;2023-09-12T09:06:30;24.30;99.90
26336;DHT22;14047;50.936;4.654;2023-09-12T09:08:58;24.50;99.90
26336;DHT22;14047;50.936;4.654;2023-09-12T09:11:25;24.80;99.90
26336;DHT22;14047;50.936;4.654;2023-09-12T09:13:54;25.00;99.90
26336;DHT22;14047;50.936;4.654;2023-09-12T09:16:20;25.10;99.90
26336;DHT22;14047;50.936;4.654;2023-09-12T09:19:03;25.30;99.90
26336;DHT22;14047;50.936;4.654;2023-09-12T09:21:33;24.80;99.90
26336;DHT22;14047;50.936;4.654;2023-09-12T09:24:01;24.80;99.90
26336;DHT22;14047;50.936;4.654;2023-09-12T09:26:49;24.70;99.90
26336;DHT22;14047;50.936;4.654;2023-09-12T09:29:20;24.90;99.90
26336;DHT22;14047;50.936;4.654;2023-09-12T09:31:47;25.20;99.90
26336;DHT22;14047;50.936;4.654;2023-09-12T09:34:19;25.50;99.90
26336;DHT22;14047;50.936;4.654;2023-09-12T09:36:52;25.70;99.90
26336;DHT22;14047;50.936;4.654;2023-09-12T09:39:24;26.00;99.90
26336;DHT22;14047;50.936;4.654;2023-09-12T09:41:55;26.40;99.90
26336;DHT22;14047;50.936;4.654;2023-09-12T09:44:22;26.50;99.90
26336;DHT22;14047;50.936;4.654;2023-09-12T09:46:59;26.70;99.90
26336;DHT22;14047;50.936;4.654;2023-09-12T09:49:31;26.90;99.90
26336;DHT22;14047;50.936;4.654;2023-09-12T09:51:57;27.10;99.90
26336;DHT22;14047;50.936;4.654;2023-09-12T09:54:25;27.30;99.90
26336;DHT22;14047;50.936;4.654;2023-09-12T09:56:56;27.40;99.90
26336;DHT22;14047;50.936;4.654;2023-09-12T09:59:23;27.60;99.90
26336;DHT22;14047;50.936;4.654;2023-09-12T10:01:50;27.50;99.90
26336;DHT22;14047;50.936;4.654;2023-09-12T10:04:18;27.50;99.90
26336;DHT22;14047;50.936;4.654;2023-09-12T10:06:45;27.50;99.90
26336;DHT22;14047;50.936;4.654;2023-09-12T10:09:12;27.50;99.90
26336;DHT22;14047;50.936;4.654;2023-09-12T10:11:40;27.40;99.90
26336;DHT22;14047;50.936;4.654;2023-09-12T10:14:07;27.30;99.90
26336;DHT22;14047;50.936;4.654;2023-09-12T10:16:34;27.30;99.90
26336;DHT22;14047;50.936;4.654;2023-09-12T10:19:20;27.20;99.90
26336;DHT22;14047;50.936;4.654;2023-09-12T10:22:10;26.20;99.90
26336;DHT22;14047;50.936;4.654;2023-09-12T10:24:39;26.10;99.90
26336;DHT22;14047;50.936;4.654;2023-09-12T10:27:06;26.20;99.90
26336;DHT22;14047;50.936;4.654;2023-09-12T10:29:34;26.20;99.90
26336;DHT22;14047;50.936;4.654;2023-09-12T10:32:00;26.40;99.90
26336;DHT22;14047;50.936;4.654;2023-09-12T10:34:27;26.70;99.90
26336;DHT22;14047;50.936;4.654;2023-09-12T10:36:57;26.90;99.90
26336;DHT22;14047;50.936;4.654;2023-09-12T10:39:27;27.00;99.90
26336;DHT22;14047;50.936;4.654;2023-09-12T10:41:54;26.90;99.90
26336;DHT22;14047;50.936;4.654;2023-09-12T10:44:20;27.00;99.90
26336;DHT22;14047;50.936;4.654;2023-09-12T10:46:50;26.90;99.90
26336;DHT22;14047;50.936;4.654;2023-09-12T10:49:17;26.80;99.90
26336;DHT22;14047;50.936;4.654;2023-09-12T10:51:46;26.90;99.90
26336;DHT22;14047;50.936;4.654;2023-09-12T10:54:26;27.10;99.90
26336;DHT22;14047;50.936;4.654;2023-09-12T10:57:08;27.60;99.90
26336;DHT22;14047;50.936;4.654;2023-09-12T10:59:37;28.00;99.90
26336;DHT22;14047;50.936;4.654;2023-09-12T11:02:34;28.10;99.90
26336;DHT22;14047;50.936;4.654;2023-09-12T11:05:02;28.10;99.90
26336;DHT22;14047;50.936;4.654;2023-09-12T11:07:56;28.20;99.90
26336;DHT22;14047;50.936;4.654;2023-09-12T11:10:19;28.30;99.90
26336;DHT22;14047;50.936;4.654;2023-09-12T11:12:47;28.30;99.90
26336;DHT22;14047;50.936;4.654;2023-09-12T11:15:14;28.50;99.90
26336;DHT22;14047;50.936;4.654;2023-09-12T11:17:45;28.70;99.90
26336;DHT22;14047;50.936;4.654;2023-09-12T11:20:13;29.10;99.90
26336;DHT22;14047;50.936;4.654;2023-09-12T11:22:49;29.20;99.90
26336;DHT22;14047;50.936;4.654;2023-09-12T11:25:23;29.40;99.90
26336;DHT22;14047;50.936;4.654;2023-09-12T11:30:19;29.60;99.90
26336;DHT22;14047;50.936;4.654;2023-09-12T11:32:50;29.70;99.90
26336;DHT22;14047;50.936;4.654;2023-09-12T11:35:22;29.70;99.90
26336;DHT22;14047;50.936;4.654;2023-09-12T11:37:49;29.80;99.90
26336;DHT22;14047;50.936;4.654;2023-09-12T11:40:17;29.70;99.90
26336;DHT22;14047;50.936;4.654;2023-09-12T11:42:44;29.40;99.90
26336;DHT22;14047;50.936;4.654;2023-09-12T11:45:17;29.20;99.90
26336;DHT22;14047;50.936;4.654;2023-09-12T11:47:45;28.90;99.90
26336;DHT22;14047;50.936;4.654;2023-09-12T11:50:34;28.60;99.90
26336;DHT22;14047;50.936;4.654;2023-09-12T11:53:09;28.60;99.90
26336;DHT22;14047;50.936;4.654;2023-09-12T11:55:42;28.70;99.90
26336;DHT22;14047;50.936;4.654;2023-09-12T11:58:13;28.30;99.90
26336;DHT22;14047;50.936;4.654;2023-09-12T12:00:49;28.30;99.90
26336;DHT22;14047;50.936;4.654;2023-09-12T12:03:16;28.30;99.90
26336;DHT22;14047;50.936;4.654;2023-09-12T12:05:43;28.50;99.90
26336;DHT22;14047;50.936;4.654;2023-09-12T12:08:10;28.80;99.90
26336;DHT22;14047;50.936;4.654;2023-09-12T12:10:40;29.10;99.90
26336;DHT22;14047;50.936;4.654;2023-09-12T12:13:20;28.90;99.90
26336;DHT22;14047;50.936;4.654;2023-09-12T12:15:46;29.20;99.90
26336;DHT22;14047;50.936;4.654;2023-09-12T12:18:12;29.20;99.90
26336;DHT22;14047;50.936;4.654;2023-09-12T12:20:38;29.20;99.90
26336;DHT22;14047;50.936;4.654;2023-09-12T12:23:04;29.20;99.90
26336;DHT22;14047;50.936;4.654;2023-09-12T12:25:34;29.40;99.90
26336;DHT22;14047;50.936;4.654;2023-09-12T12:28:01;29.70;99.90
26336;DHT22;14047;50.936;4.654;2023-09-12T12:30:31;30.00;99.90
26336;DHT22;14047;50.936;4.654;2023-09-12T12:33:01;30.20;99.90
26336;DHT22;14047;50.936;4.654;2023-09-12T12:35:28;30.50;99.90
26336;DHT22;14047;50.936;4.654;2023-09-12T12:37:55;30.90;99.90
26336;DHT22;14047;50.936;4.654;2023-09-12T12:40:22;31.00;99.90
26336;DHT22;14047;50.936;4.654;2023-09-12T12:42:48;30.40;99.90
26336;DHT22;14047;50.936;4.654;2023-09-12T12:45:16;30.40;99.90
26336;DHT22;14047;50.936;4.654;2023-09-12T12:47:43;30.40;99.90
26336;DHT22;14047;50.936;4.654;2023-09-12T12:50:15;30.40;99.90
26336;DHT22;14047;50.936;4.654;2023-09-12T12:52:46;30.40;99.90
26336;DHT22;14047;50.936;4.654;2023-09-12T12:55:13;30.10;99.90
26336;DHT22;14047;50.936;4.654;2023-09-12T12:57:44;30.00;99.90
26336;DHT22;14047;50.936;4.654;2023-09-12T13:00:14;30.00;99.90
26336;DHT22;14047;50.936;4.654;2023-09-12T13:02:42;30.10;99.90
26336;DHT22;14047;50.936;4.654;2023-09-12T13:05:27;30.00;99.90
26336;DHT22;14047;50.936;4.654;2023-09-12T13:07:54;30.10;99.90
26336;DHT22;14047;50.936;4.654;2023-09-12T13:10:21;30.00;99.90
26336;DHT22;14047;50.936;4.654;2023-09-12T13:12:48;30.10;99.90
26336;DHT22;14047;50.936;4.654;2023-09-12T13:15:15;30.00;99.90
26336;DHT22;14047;50.936;4.654;2023-09-12T13:17:42;30.20;99.90
26336;DHT22;14047;50.936;4.654;2023-09-12T13:20:08;30.10;99.90
26336;DHT22;14047;50.936;4.654;2023-09-12T13:22:35;30.10;99.90
26336;DHT22;14047;50.936;4.654;2023-09-12T13:25:01;30.10;99.90
26336;DHT22;14047;50.936;4.654;2023-09-12T13:27:28;30.10;99.90
26336;DHT22;14047;50.936;4.654;2023-09-12T13:29:54;30.10;99.90
26336;DHT22;14047;50.936;4.654;2023-09-12T13:32:20;30.20;99.90
26336;DHT22;14047;50.936;4.654;2023-09-12T13:34:46;30.00;99.90
26336;DHT22;14047;50.936;4.654;2023-09-12T13:37:12;30.00;99.90
26336;DHT22;14047;50.936;4.654;2023-09-12T13:39:38;30.00;99.90
26336;DHT22;14047;50.936;4.654;2023-09-12T13:42:06;29.80;99.90
26336;DHT22;14047;50.936;4.654;2023-09-12T13:44:34;29.70;99.90
26336;DHT22;14047;50.936;4.654;2023-09-12T13:46:59;29.50;99.90
26336;DHT22;14047;50.936;4.654;2023-09-12T13:49:25;29.40;99.90
26336;DHT22;14047;50.936;4.654;2023-09-12T13:51:51;29.30;99.90
26336;DHT22;14047;50.936;4.654;2023-09-12T13:54:17;29.10;99.90
26336;DHT22;14047;50.936;4.654;2023-09-12T13:56:43;29.10;99.90
26336;DHT22;14047;50.936;4.654;2023-09-12T13:59:09;29.00;99.90
26336;DHT22;14047;50.936;4.654;2023-09-12T14:01:36;29.00;99.90
26336;DHT22;14047;50.936;4.654;2023-09-12T14:04:04;28.90;99.90
26336;DHT22;14047;50.936;4.654;2023-09-12T14:06:32;28.80;99.90
26336;DHT22;14047;50.936;4.654;2023-09-12T14:08:58;28.70;99.90
26336;DHT22;14047;50.936;4.654;2023-09-12T14:11:24;28.50;99.90
26336;DHT22;14047;50.936;4.654;2023-09-12T14:13:50;28.40;99.90
26336;DHT22;14047;50.936;4.654;2023-09-12T14:16:16;28.40;99.90
26336;DHT22;14047;50.936;4.654;2023-09-12T14:18:42;28.50;99.90
26336;DHT22;14047;50.936;4.654;2023-09-12T14:21:07;28.50;99.90
26336;DHT22;14047;50.936;4.654;2023-09-12T14:23:33;28.50;99.90
26336;DHT22;14047;50.936;4.654;2023-09-12T14:25:59;28.40;99.90
26336;DHT22;14047;50.936;4.654;2023-09-12T14:28:25;28.30;99.90
26336;DHT22;14047;50.936;4.654;2023-09-12T14:30:52;28.20;99.90
26336;DHT22;14047;50.936;4.654;2023-09-12T14:33:18;28.00;99.90
26336;DHT22;14047;50.936;4.654;2023-09-12T14:35:44;27.80;99.90
26336;DHT22;14047;50.936;4.654;2023-09-12T14:38:11;27.60;99.90
26336;DHT22;14047;50.936;4.654;2023-09-12T14:40:37;27.50;99.90
26336;DHT22;14047;50.936;4.654;2023-09-12T14:43:03;27.40;99.90
26336;DHT22;14047;50.936;4.654;2023-09-12T14:45:29;27.40;99.90
26336;DHT22;14047;50.936;4.654;2023-09-12T14:47:56;27.30;99.90
26336;DHT22;14047;50.936;4.654;2023-09-12T14:50:23;27.20;99.90
26336;DHT22;14047;50.936;4.654;2023-09-12T14:52:50;27.10;99.90
26336;DHT22;14047;50.936;4.654;2023-09-12T14:55:16;26.90;99.90
26336;DHT22;14047;50.936;4.654;2023-09-12T14:57:42;26.80;99.90
26336;DHT22;14047;50.936;4.654;2023-09-12T15:00:10;26.70;99.90
26336;DHT22;14047;50.936;4.654;2023-09-12T15:02:37;26.70;99.90
26336;DHT22;14047;50.936;4.654;2023-09-12T15:05:03;26.70;99.90
26336;DHT22;14047;50.936;4.654;2023-09-12T15:07:30;26.70;99.90
26336;DHT22;14047;50.936;4.654;2023-09-12T15:09:56;26.60;99.90
26336;DHT22;14047;50.936;4.654;2023-09-12T15:12:22;26.60;99.90
26336;DHT22;14047;50.936;4.654;2023-09-12T15:14:50;26.60;99.90
26336;DHT22;14047;50.936;4.654;2023-09-12T15:17:17;26.70;99.90
26336;DHT22;14047;50.936;4.654;2023-09-12T15:19:43;26.60;99.90
26336;DHT22;14047;50.936;4.654;2023-09-12T15:22:09;26.70;99.90
26336;DHT22;14047;50.936;4.654;2023-09-12T15:24:35;26.60;99.90
26336;DHT22;14047;50.936;4.654;2023-09-12T15:27:01;26.50;99.90
26336;DHT22;14047;50.936;4.654;2023-09-12T15:29:27;26.50;99.90
26336;DHT22;14047;50.936;4.654;2023-09-12T15:31:53;26.50;99.90
26336;DHT22;14047;50.936;4.654;2023-09-12T15:34:20;26.40;99.90
26336;DHT22;14047;50.936;4.654;2023-09-12T15:36:47;26.40;99.90
26336;DHT22;14047;50.936;4.654;2023-09-12T15:39:14;26.40;99.90
26336;DHT22;14047;50.936;4.654;2023-09-12T15:41:40;26.20;99.90